sensor_id;sensor_type;location;lat;lon;timestamp;temperature;humidity
652;DHT22;310;48.490;9.200;2023-05-19T00:01:44;17.80;28.80
652;DHT22;310;48.490;9.200;2023-05-19T00:04:12;17.90;29.20
652;DHT22;310;48.490;9.200;2023-05-19T00:06:39;18.00;26.60
652;DHT22;310;48.490;9.200;2023-05-19T00:09:07;18.10;26.70
652;DHT22;310;48.490;9.200;2023-05-19T00:11:37;18.10;26.40
652;DHT22;310;48.490;9.200;2023-05-19T00:14:05;18.30;26.70
652;DHT22;310;48.490;9.200;2023-05-19T00:16:31;17.90;26.40
652;DHT22;310;48.490;9.200;2023-05-19T00:18:58;17.90;26.50
652;DHT22;310;48.490;9.200;2023-05-19T00:21:28;17.80;26.40
652;DHT22;310;48.490;9.200;2023-05-19T00:23:54;17.80;27.00
652;DHT22;310;48.490;9.200;2023-05-19T00:26:19;17.80;27.80
652;DHT22;310;48.490;9.200;2023-05-19T00:28:48;17.90;27.20
652;DHT22;310;48.490;9.200;2023-05-19T00:31:14;18.00;28.50
652;DHT22;310;48.490;9.200;2023-05-19T00:33:40;17.90;27.90
652;DHT22;310;48.490;9.200;2023-05-19T00:36:06;17.80;28.80
652;DHT22;310;48.490;9.200;2023-05-19T00:38:34;17.80;29.00
652;DHT22;310;48.490;9.200;2023-05-19T00:41:01;17.90;28.30
652;DHT22;310;48.490;9.200;2023-05-19T00:43:27;17.90;28.10
652;DHT22;310;48.490;9.200;2023-05-19T00:45:54;17.80;29.10
652;DHT22;310;48.490;9.200;2023-05-19T00:48:20;17.40;28.70
652;DHT22;310;48.490;9.200;2023-05-19T00:50:46;17.50;31.10
652;DHT22;310;48.490;9.200;2023-05-19T00:53:13;17.70;30.40
652;DHT22;310;48.490;9.200;2023-05-19T00:55:39;17.60;30.00
652;DHT22;310;48.490;9.200;2023-05-19T00:58:06;17.60;28.10
652;DHT22;310;48.490;9.200;2023-05-19T01:00:33;17.80;27.80
652;DHT22;310;48.490;9.200;2023-05-19T01:03:02;17.90;27.80
652;DHT22;310;48.490;9.200;2023-05-19T01:05:40;17.90;28.90
652;DHT22;310;48.490;9.200;2023-05-19T01:08:18;17.70;28.80
652;DHT22;310;48.490;9.200;2023-05-19T01:10:44;17.60;29.90
652;DHT22;310;48.490;9.200;2023-05-19T01:13:09;17.70;29.30
652;DHT22;310;48.490;9.200;2023-05-19T01:18:52;17.50;27.10
652;DHT22;310;48.490;9.200;2023-05-19T01:24:44;17.40;28.10
652;DHT22;310;48.490;9.200;2023-05-19T01:30:29;17.20;27.30
652;DHT22;310;48.490;9.200;2023-05-19T01:33:00;17.20;27.70
652;DHT22;310;48.490;9.200;2023-05-19T01:35:27;17.50;27.90
652;DHT22;310;48.490;9.200;2023-05-19T01:37:56;17.70;28.60
652;DHT22;310;48.490;9.200;2023-05-19T01:40:23;17.60;29.10
652;DHT22;310;48.490;9.200;2023-05-19T01:42:51;17.40;29.40
652;DHT22;310;48.490;9.200;2023-05-19T01:45:19;17.50;29.00
652;DHT22;310;48.490;9.200;2023-05-19T01:47:47;17.70;27.50
652;DHT22;310;48.490;9.200;2023-05-19T01:50:13;17.50;28.10
652;DHT22;310;48.490;9.200;2023-05-19T01:52:39;17.40;27.70
652;DHT22;310;48.490;9.200;2023-05-19T01:55:05;17.20;27.50
652;DHT22;310;48.490;9.200;2023-05-19T02:08:36;17.40;30.20
652;DHT22;310;48.490;9.200;2023-05-19T02:11:13;17.30;28.80
652;DHT22;310;48.490;9.200;2023-05-19T02:13:43;17.30;28.90
652;DHT22;310;48.490;9.200;2023-05-19T02:16:09;17.30;28.50
652;DHT22;310;48.490;9.200;2023-05-19T02:18:36;17.00;27.90
652;DHT22;310;48.490;9.200;2023-05-19T02:21:02;17.10;28.20
652;DHT22;310;48.490;9.200;2023-05-19T02:23:28;17.20;28.80
652;DHT22;310;48.490;9.200;2023-05-19T02:25:54;17.40;29.40
652;DHT22;310;48.490;9.200;2023-05-19T02:28:19;17.30;29.80
652;DHT22;310;48.490;9.200;2023-05-19T02:30:45;17.30;27.60
652;DHT22;310;48.490;9.200;2023-05-19T02:33:12;17.40;29.40
652;DHT22;310;48.490;9.200;2023-05-19T02:35:37;17.30;28.20
652;DHT22;310;48.490;9.200;2023-05-19T02:38:03;17.30;28.10
652;DHT22;310;48.490;9.200;2023-05-19T02:40:29;17.20;28.90
652;DHT22;310;48.490;9.200;2023-05-19T02:42:55;17.20;29.60
652;DHT22;310;48.490;9.200;2023-05-19T02:45:20;17.10;28.50
652;DHT22;310;48.490;9.200;2023-05-19T02:47:46;17.20;28.70
652;DHT22;310;48.490;9.200;2023-05-19T02:50:11;17.20;28.00
652;DHT22;310;48.490;9.200;2023-05-19T02:52:37;17.20;28.00
652;DHT22;310;48.490;9.200;2023-05-19T02:55:03;17.00;29.10
652;DHT22;310;48.490;9.200;2023-05-19T02:57:28;16.90;27.40
652;DHT22;310;48.490;9.200;2023-05-19T02:59:56;17.00;27.90
652;DHT22;310;48.490;9.200;2023-05-19T03:02:21;17.10;28.70
652;DHT22;310;48.490;9.200;2023-05-19T03:04:47;17.10;27.30
652;DHT22;310;48.490;9.200;2023-05-19T03:07:12;17.20;28.30
652;DHT22;310;48.490;9.200;2023-05-19T03:09:38;17.10;29.20
652;DHT22;310;48.490;9.200;2023-05-19T03:12:04;16.90;29.10
652;DHT22;310;48.490;9.200;2023-05-19T03:14:32;16.60;29.00
652;DHT22;310;48.490;9.200;2023-05-19T03:16:58;16.60;29.00
652;DHT22;310;48.490;9.200;2023-05-19T03:19:24;16.60;29.30
652;DHT22;310;48.490;9.200;2023-05-19T03:21:50;16.80;29.30
652;DHT22;310;48.490;9.200;2023-05-19T03:24:16;16.90;29.20
652;DHT22;310;48.490;9.200;2023-05-19T03:26:42;16.90;30.30
652;DHT22;310;48.490;9.200;2023-05-19T03:29:08;16.90;29.70
652;DHT22;310;48.490;9.200;2023-05-19T03:31:34;17.00;30.90
652;DHT22;310;48.490;9.200;2023-05-19T03:34:00;17.10;28.90
652;DHT22;310;48.490;9.200;2023-05-19T03:36:26;17.10;27.80
652;DHT22;310;48.490;9.200;2023-05-19T03:38:59;17.00;27.80
652;DHT22;310;48.490;9.200;2023-05-19T03:41:25;17.00;28.60
652;DHT22;310;48.490;9.200;2023-05-19T03:43:50;17.00;27.50
652;DHT22;310;48.490;9.200;2023-05-19T03:46:16;16.90;27.70
652;DHT22;310;48.490;9.200;2023-05-19T03:48:41;16.60;27.90
652;DHT22;310;48.490;9.200;2023-05-19T03:51:07;16.80;28.00
652;DHT22;310;48.490;9.200;2023-05-19T03:53:33;17.00;29.70
652;DHT22;310;48.490;9.200;2023-05-19T03:55:59;17.10;29.40
652;DHT22;310;48.490;9.200;2023-05-19T03:58:25;17.20;27.70
652;DHT22;310;48.490;9.200;2023-05-19T04:00:51;17.10;29.60
652;DHT22;310;48.490;9.200;2023-05-19T04:03:16;17.00;29.50
652;DHT22;310;48.490;9.200;2023-05-19T04:05:42;17.20;30.30
652;DHT22;310;48.490;9.200;2023-05-19T04:08:08;17.00;30.00
652;DHT22;310;48.490;9.200;2023-05-19T04:10:34;16.90;29.90
652;DHT22;310;48.490;9.200;2023-05-19T04:12:59;16.90;30.40
652;DHT22;310;48.490;9.200;2023-05-19T04:15:25;16.90;31.80
652;DHT22;310;48.490;9.200;2023-05-19T04:17:51;16.90;32.30
652;DHT22;310;48.490;9.200;2023-05-19T04:20:16;16.90;30.00
652;DHT22;310;48.490;9.200;2023-05-19T04:22:42;17.10;30.10
652;DHT22;310;48.490;9.200;2023-05-19T04:25:08;16.90;29.80
652;DHT22;310;48.490;9.200;2023-05-19T04:27:33;16.90;28.70
652;DHT22;310;48.490;9.200;2023-05-19T04:30:04;17.10;28.60
652;DHT22;310;48.490;9.200;2023-05-19T04:32:30;17.20;29.30
652;DHT22;310;48.490;9.200;2023-05-19T04:34:56;17.10;30.00
652;DHT22;310;48.490;9.200;2023-05-19T04:37:24;17.20;30.20
652;DHT22;310;48.490;9.200;2023-05-19T04:39:50;17.00;30.10
652;DHT22;310;48.490;9.200;2023-05-19T04:42:16;17.00;29.40
652;DHT22;310;48.490;9.200;2023-05-19T04:44:44;17.00;28.30
652;DHT22;310;48.490;9.200;2023-05-19T04:47:09;17.20;29.40
652;DHT22;310;48.490;9.200;2023-05-19T04:49:35;17.00;30.80
652;DHT22;310;48.490;9.200;2023-05-19T04:52:08;17.20;29.00
652;DHT22;310;48.490;9.200;2023-05-19T04:54:38;17.40;29.20
652;DHT22;310;48.490;9.200;2023-05-19T04:57:04;17.40;27.80
652;DHT22;310;48.490;9.200;2023-05-19T04:59:31;17.40;28.80
652;DHT22;310;48.490;9.200;2023-05-19T05:01:56;17.40;30.00
652;DHT22;310;48.490;9.200;2023-05-19T05:04:22;17.40;27.60
652;DHT22;310;48.490;9.200;2023-05-19T05:06:48;17.50;28.10
652;DHT22;310;48.490;9.200;2023-05-19T05:09:15;17.20;27.50
652;DHT22;310;48.490;9.200;2023-05-19T05:11:41;17.20;27.90
652;DHT22;310;48.490;9.200;2023-05-19T05:14:07;17.30;27.60
652;DHT22;310;48.490;9.200;2023-05-19T05:16:33;17.10;28.90
652;DHT22;310;48.490;9.200;2023-05-19T05:19:00;17.20;29.20
652;DHT22;310;48.490;9.200;2023-05-19T05:21:27;17.40;28.40
652;DHT22;310;48.490;9.200;2023-05-19T05:23:52;17.00;28.80
652;DHT22;310;48.490;9.200;2023-05-19T05:26:19;17.20;29.30
652;DHT22;310;48.490;9.200;2023-05-19T05:28:50;17.50;29.00
652;DHT22;310;48.490;9.200;2023-05-19T05:31:16;17.40;28.00
652;DHT22;310;48.490;9.200;2023-05-19T05:33:42;17.40;29.60
652;DHT22;310;48.490;9.200;2023-05-19T05:36:08;17.60;28.90
652;DHT22;310;48.490;9.200;2023-05-19T05:38:34;17.70;28.30
652;DHT22;310;48.490;9.200;2023-05-19T05:41:00;18.00;28.10
652;DHT22;310;48.490;9.200;2023-05-19T05:43:27;18.00;27.40
652;DHT22;310;48.490;9.200;2023-05-19T05:45:53;18.20;27.30
652;DHT22;310;48.490;9.200;2023-05-19T05:48:19;18.00;27.40
652;DHT22;310;48.490;9.200;2023-05-19T05:50:44;17.80;27.20
652;DHT22;310;48.490;9.200;2023-05-19T05:53:16;17.80;27.90
652;DHT22;310;48.490;9.200;2023-05-19T05:55:42;17.60;29.00
652;DHT22;310;48.490;9.200;2023-05-19T05:58:08;17.60;28.00
652;DHT22;310;48.490;9.200;2023-05-19T06:00:36;17.50;27.80
652;DHT22;310;48.490;9.200;2023-05-19T06:03:02;17.60;28.50
652;DHT22;310;48.490;9.200;2023-05-19T06:05:29;17.40;28.30
652;DHT22;310;48.490;9.200;2023-05-19T06:07:54;17.40;28.20
652;DHT22;310;48.490;9.200;2023-05-19T06:10:20;17.70;27.60
652;DHT22;310;48.490;9.200;2023-05-19T06:12:46;17.70;27.80
652;DHT22;310;48.490;9.200;2023-05-19T06:15:12;17.70;27.70
652;DHT22;310;48.490;9.200;2023-05-19T06:17:38;17.50;28.60
652;DHT22;310;48.490;9.200;2023-05-19T06:20:04;17.60;27.80
652;DHT22;310;48.490;9.200;2023-05-19T06:22:30;17.70;28.80
652;DHT22;310;48.490;9.200;2023-05-19T06:24:56;17.90;28.40
652;DHT22;310;48.490;9.200;2023-05-19T06:27:21;18.10;28.60
652;DHT22;310;48.490;9.200;2023-05-19T06:29:47;17.70;28.00
652;DHT22;310;48.490;9.200;2023-05-19T06:32:13;17.90;27.70
652;DHT22;310;48.490;9.200;2023-05-19T06:34:39;18.10;28.40
652;DHT22;310;48.490;9.200;2023-05-19T06:37:05;18.50;27.40
652;DHT22;310;48.490;9.200;2023-05-19T06:39:31;18.70;26.40
652;DHT22;310;48.490;9.200;2023-05-19T06:41:57;18.90;26.50
652;DHT22;310;48.490;9.200;2023-05-19T06:44:22;18.80;26.70
652;DHT22;310;48.490;9.200;2023-05-19T06:46:48;19.00;26.70
652;DHT22;310;48.490;9.200;2023-05-19T06:49:14;18.70;26.20
652;DHT22;310;48.490;9.200;2023-05-19T06:51:39;18.80;25.70
652;DHT22;310;48.490;9.200;2023-05-19T06:54:05;18.60;26.30
652;DHT22;310;48.490;9.200;2023-05-19T06:56:31;18.50;26.80
652;DHT22;310;48.490;9.200;2023-05-19T06:58:56;18.40;27.30
652;DHT22;310;48.490;9.200;2023-05-19T07:01:22;18.10;27.00
652;DHT22;310;48.490;9.200;2023-05-19T07:03:48;18.30;27.50
652;DHT22;310;48.490;9.200;2023-05-19T07:06:13;18.50;28.40
652;DHT22;310;48.490;9.200;2023-05-19T07:08:39;18.30;26.90
652;DHT22;310;48.490;9.200;2023-05-19T07:11:04;18.40;26.90
652;DHT22;310;48.490;9.200;2023-05-19T07:13:30;18.60;26.50
652;DHT22;310;48.490;9.200;2023-05-19T07:15:57;18.50;26.00
652;DHT22;310;48.490;9.200;2023-05-19T07:18:22;18.40;26.50
652;DHT22;310;48.490;9.200;2023-05-19T07:20:48;18.40;26.80
652;DHT22;310;48.490;9.200;2023-05-19T07:23:15;18.50;26.40
652;DHT22;310;48.490;9.200;2023-05-19T07:25:41;18.50;26.40
652;DHT22;310;48.490;9.200;2023-05-19T07:28:07;18.60;26.00
652;DHT22;310;48.490;9.200;2023-05-19T07:30:32;18.60;26.20
652;DHT22;310;48.490;9.200;2023-05-19T07:32:58;18.60;26.90
652;DHT22;310;48.490;9.200;2023-05-19T07:35:24;18.50;26.80
652;DHT22;310;48.490;9.200;2023-05-19T07:37:51;18.60;27.30
652;DHT22;310;48.490;9.200;2023-05-19T07:40:17;18.80;26.00
652;DHT22;310;48.490;9.200;2023-05-19T07:42:42;18.90;26.70
652;DHT22;310;48.490;9.200;2023-05-19T07:45:09;19.00;27.10
652;DHT22;310;48.490;9.200;2023-05-19T07:47:35;18.70;26.30
652;DHT22;310;48.490;9.200;2023-05-19T07:50:01;18.90;25.80
652;DHT22;310;48.490;9.200;2023-05-19T07:52:27;19.00;27.50
652;DHT22;310;48.490;9.200;2023-05-19T07:54:52;18.50;26.40
652;DHT22;310;48.490;9.200;2023-05-19T07:57:18;18.50;27.40
652;DHT22;310;48.490;9.200;2023-05-19T07:59:44;18.50;27.30
652;DHT22;310;48.490;9.200;2023-05-19T08:02:10;18.70;27.40
652;DHT22;310;48.490;9.200;2023-05-19T08:04:35;18.90;26.50
652;DHT22;310;48.490;9.200;2023-05-19T08:07:01;19.10;27.20
652;DHT22;310;48.490;9.200;2023-05-19T08:09:26;18.90;26.40
652;DHT22;310;48.490;9.200;2023-05-19T08:11:52;19.00;27.20
652;DHT22;310;48.490;9.200;2023-05-19T08:14:18;19.20;26.60
652;DHT22;310;48.490;9.200;2023-05-19T08:16:46;19.20;27.20
652;DHT22;310;48.490;9.200;2023-05-19T08:19:12;19.10;27.80
652;DHT22;310;48.490;9.200;2023-05-19T08:21:37;18.80;27.00
652;DHT22;310;48.490;9.200;2023-05-19T08:24:03;18.80;27.30
652;DHT22;310;48.490;9.200;2023-05-19T08:26:29;18.70;27.90
652;DHT22;310;48.490;9.200;2023-05-19T08:28:55;18.80;27.60
652;DHT22;310;48.490;9.200;2023-05-19T08:31:20;18.70;28.60
652;DHT22;310;48.490;9.200;2023-05-19T08:33:46;18.90;27.50
652;DHT22;310;48.490;9.200;2023-05-19T08:36:12;18.50;27.50
652;DHT22;310;48.490;9.200;2023-05-19T08:38:38;18.50;27.30
652;DHT22;310;48.490;9.200;2023-05-19T08:41:03;18.10;27.90
652;DHT22;310;48.490;9.200;2023-05-19T08:43:30;18.30;28.40
652;DHT22;310;48.490;9.200;2023-05-19T08:45:59;18.50;28.50
652;DHT22;310;48.490;9.200;2023-05-19T08:48:28;18.50;28.10
652;DHT22;310;48.490;9.200;2023-05-19T08:53:26;18.80;28.60
652;DHT22;310;48.490;9.200;2023-05-19T08:56:20;18.90;27.60
652;DHT22;310;48.490;9.200;2023-05-19T08:58:48;19.00;27.40
652;DHT22;310;48.490;9.200;2023-05-19T09:01:14;18.90;27.40
652;DHT22;310;48.490;9.200;2023-05-19T09:03:43;19.10;27.60
652;DHT22;310;48.490;9.200;2023-05-19T09:06:10;19.30;27.00
652;DHT22;310;48.490;9.200;2023-05-19T09:08:39;19.10;26.50
652;DHT22;310;48.490;9.200;2023-05-19T09:11:05;19.10;28.10
652;DHT22;310;48.490;9.200;2023-05-19T09:13:31;19.00;27.90
652;DHT22;310;48.490;9.200;2023-05-19T09:15:57;19.20;28.60
652;DHT22;310;48.490;9.200;2023-05-19T09:18:25;19.40;27.50
652;DHT22;310;48.490;9.200;2023-05-19T09:20:55;19.40;27.00
652;DHT22;310;48.490;9.200;2023-05-19T09:23:26;19.40;27.40
652;DHT22;310;48.490;9.200;2023-05-19T09:25:53;19.30;27.70
652;DHT22;310;48.490;9.200;2023-05-19T09:28:26;19.40;27.70
652;DHT22;310;48.490;9.200;2023-05-19T09:31:07;19.50;27.40
652;DHT22;310;48.490;9.200;2023-05-19T09:33:35;19.10;26.70
652;DHT22;310;48.490;9.200;2023-05-19T09:36:01;19.10;27.80
652;DHT22;310;48.490;9.200;2023-05-19T09:38:28;18.90;27.10
652;DHT22;310;48.490;9.200;2023-05-19T09:40:58;18.90;26.80
652;DHT22;310;48.490;9.200;2023-05-19T09:43:31;18.60;27.00
652;DHT22;310;48.490;9.200;2023-05-19T09:46:08;18.50;27.50
652;DHT22;310;48.490;9.200;2023-05-19T09:48:36;18.60;29.50
652;DHT22;310;48.490;9.200;2023-05-19T09:51:02;18.60;28.10
652;DHT22;310;48.490;9.200;2023-05-19T09:53:29;18.90;27.60
652;DHT22;310;48.490;9.200;2023-05-19T09:55:56;18.80;27.60
652;DHT22;310;48.490;9.200;2023-05-19T09:58:22;19.00;28.10
652;DHT22;310;48.490;9.200;2023-05-19T10:00:49;19.00;26.80
652;DHT22;310;48.490;9.200;2023-05-19T10:03:15;19.10;27.00
652;DHT22;310;48.490;9.200;2023-05-19T10:05:42;19.40;26.90
652;DHT22;310;48.490;9.200;2023-05-19T10:08:08;19.20;27.10
652;DHT22;310;48.490;9.200;2023-05-19T10:10:36;19.00;26.80
652;DHT22;310;48.490;9.200;2023-05-19T10:13:03;19.00;26.70
652;DHT22;310;48.490;9.200;2023-05-19T10:15:29;19.30;26.90
652;DHT22;310;48.490;9.200;2023-05-19T10:17:55;19.30;26.70
652;DHT22;310;48.490;9.200;2023-05-19T10:20:22;19.20;26.50
652;DHT22;310;48.490;9.200;2023-05-19T10:22:47;18.90;26.60
652;DHT22;310;48.490;9.200;2023-05-19T10:25:13;18.50;28.00
652;DHT22;310;48.490;9.200;2023-05-19T10:28:04;18.30;27.40
652;DHT22;310;48.490;9.200;2023-05-19T10:30:40;18.50;27.90
652;DHT22;310;48.490;9.200;2023-05-19T10:33:10;18.50;28.10
652;DHT22;310;48.490;9.200;2023-05-19T10:36:00;18.90;28.20
652;DHT22;310;48.490;9.200;2023-05-19T10:38:37;19.10;26.80
652;DHT22;310;48.490;9.200;2023-05-19T10:43:52;18.80;27.80
652;DHT22;310;48.490;9.200;2023-05-19T10:46:23;18.60;27.40
652;DHT22;310;48.490;9.200;2023-05-19T10:48:49;18.50;28.00
652;DHT22;310;48.490;9.200;2023-05-19T10:51:15;18.70;28.10
652;DHT22;310;48.490;9.200;2023-05-19T10:53:41;18.50;27.30
652;DHT22;310;48.490;9.200;2023-05-19T10:56:11;18.60;27.50
652;DHT22;310;48.490;9.200;2023-05-19T10:58:53;18.90;27.20
652;DHT22;310;48.490;9.200;2023-05-19T11:01:19;19.10;26.90
652;DHT22;310;48.490;9.200;2023-05-19T11:03:53;18.80;27.10
652;DHT22;310;48.490;9.200;2023-05-19T11:06:29;18.40;27.50
652;DHT22;310;48.490;9.200;2023-05-19T11:11:23;18.90;27.30
652;DHT22;310;48.490;9.200;2023-05-19T11:13:53;18.80;27.00
652;DHT22;310;48.490;9.200;2023-05-19T11:16:30;18.60;27.30
652;DHT22;310;48.490;9.200;2023-05-19T11:18:58;18.60;27.20
652;DHT22;310;48.490;9.200;2023-05-19T11:21:23;18.60;27.30
652;DHT22;310;48.490;9.200;2023-05-19T11:24:07;18.70;27.40
652;DHT22;310;48.490;9.200;2023-05-19T11:26:39;18.90;27.60
652;DHT22;310;48.490;9.200;2023-05-19T11:29:08;19.20;26.80
652;DHT22;310;48.490;9.200;2023-05-19T11:31:34;19.30;27.00
652;DHT22;310;48.490;9.200;2023-05-19T11:34:00;19.30;27.00
652;DHT22;310;48.490;9.200;2023-05-19T11:36:27;19.40;27.10
652;DHT22;310;48.490;9.200;2023-05-19T11:38:53;19.20;27.00
652;DHT22;310;48.490;9.200;2023-05-19T11:41:19;19.00;26.60
652;DHT22;310;48.490;9.200;2023-05-19T11:43:46;19.10;27.30
652;DHT22;310;48.490;9.200;2023-05-19T11:46:12;19.20;26.30
652;DHT22;310;48.490;9.200;2023-05-19T11:48:38;19.00;26.90
652;DHT22;310;48.490;9.200;2023-05-19T11:51:05;18.80;27.10
652;DHT22;310;48.490;9.200;2023-05-19T11:53:31;18.80;27.30
652;DHT22;310;48.490;9.200;2023-05-19T11:56:02;19.10;26.80
652;DHT22;310;48.490;9.200;2023-05-19T11:58:28;19.30;27.20
652;DHT22;310;48.490;9.200;2023-05-19T12:00:54;19.30;27.40
652;DHT22;310;48.490;9.200;2023-05-19T12:03:21;19.30;26.70
652;DHT22;310;48.490;9.200;2023-05-19T12:05:50;19.30;26.40
652;DHT22;310;48.490;9.200;2023-05-19T12:08:17;19.40;27.00
652;DHT22;310;48.490;9.200;2023-05-19T12:10:43;19.50;26.30
652;DHT22;310;48.490;9.200;2023-05-19T12:13:11;19.50;25.70
652;DHT22;310;48.490;9.200;2023-05-19T12:15:37;19.50;27.00
652;DHT22;310;48.490;9.200;2023-05-19T12:18:03;19.40;25.70
652;DHT22;310;48.490;9.200;2023-05-19T12:20:29;19.30;26.00
652;DHT22;310;48.490;9.200;2023-05-19T12:22:57;19.20;26.70
652;DHT22;310;48.490;9.200;2023-05-19T12:25:23;19.20;27.70
652;DHT22;310;48.490;9.200;2023-05-19T12:27:49;19.40;26.10
652;DHT22;310;48.490;9.200;2023-05-19T12:30:17;19.30;26.40
652;DHT22;310;48.490;9.200;2023-05-19T12:32:44;19.50;26.70
652;DHT22;310;48.490;9.200;2023-05-19T12:35:10;19.30;26.20
652;DHT22;310;48.490;9.200;2023-05-19T12:37:40;19.40;27.10
652;DHT22;310;48.490;9.200;2023-05-19T12:40:06;19.50;26.50
652;DHT22;310;48.490;9.200;2023-05-19T12:42:32;19.00;26.70
652;DHT22;310;48.490;9.200;2023-05-19T12:45:01;19.10;26.20
652;DHT22;310;48.490;9.200;2023-05-19T12:47:33;19.00;26.10
652;DHT22;310;48.490;9.200;2023-05-19T12:50:00;19.40;26.50
652;DHT22;310;48.490;9.200;2023-05-19T12:52:27;19.10;25.30
652;DHT22;310;48.490;9.200;2023-05-19T12:55:01;19.10;26.40
652;DHT22;310;48.490;9.200;2023-05-19T12:57:29;19.00;26.40
652;DHT22;310;48.490;9.200;2023-05-19T13:00:04;19.10;26.50
652;DHT22;310;48.490;9.200;2023-05-19T13:05:19;19.60;25.70
652;DHT22;310;48.490;9.200;2023-05-19T13:07:59;19.80;26.10
652;DHT22;310;48.490;9.200;2023-05-19T13:10:25;19.90;25.00
652;DHT22;310;48.490;9.200;2023-05-19T13:12:54;19.80;25.80
652;DHT22;310;48.490;9.200;2023-05-19T13:15:25;19.90;25.50
652;DHT22;310;48.490;9.200;2023-05-19T13:17:51;19.80;25.70
652;DHT22;310;48.490;9.200;2023-05-19T13:20:17;19.70;26.80
652;DHT22;310;48.490;9.200;2023-05-19T13:22:43;19.90;25.90
652;DHT22;310;48.490;9.200;2023-05-19T13:25:09;19.90;25.90
652;DHT22;310;48.490;9.200;2023-05-19T13:27:35;19.90;25.10
652;DHT22;310;48.490;9.200;2023-05-19T13:30:02;20.00;26.00
652;DHT22;310;48.490;9.200;2023-05-19T13:32:28;20.00;25.90
652;DHT22;310;48.490;9.200;2023-05-19T13:34:53;20.00;25.10
652;DHT22;310;48.490;9.200;2023-05-19T13:37:19;20.00;25.00
652;DHT22;310;48.490;9.200;2023-05-19T13:39:45;20.10;26.00
652;DHT22;310;48.490;9.200;2023-05-19T13:42:10;19.70;25.80
652;DHT22;310;48.490;9.200;2023-05-19T13:44:36;19.70;25.80
652;DHT22;310;48.490;9.200;2023-05-19T13:47:02;20.10;26.00
652;DHT22;310;48.490;9.200;2023-05-19T13:49:28;20.10;26.00
652;DHT22;310;48.490;9.200;2023-05-19T13:51:57;20.20;25.50
652;DHT22;310;48.490;9.200;2023-05-19T13:54:23;20.20;25.20
652;DHT22;310;48.490;9.200;2023-05-19T13:56:48;20.20;24.50
652;DHT22;310;48.490;9.200;2023-05-19T13:59:14;20.10;24.90
652;DHT22;310;48.490;9.200;2023-05-19T14:01:41;20.10;24.70
652;DHT22;310;48.490;9.200;2023-05-19T14:04:08;20.20;24.80
652;DHT22;310;48.490;9.200;2023-05-19T14:06:33;20.20;25.50
652;DHT22;310;48.490;9.200;2023-05-19T14:08:59;20.20;24.90
652;DHT22;310;48.490;9.200;2023-05-19T14:11:25;20.20;25.20
652;DHT22;310;48.490;9.200;2023-05-19T14:13:50;20.30;24.80
652;DHT22;310;48.490;9.200;2023-05-19T14:16:16;20.00;25.20
652;DHT22;310;48.490;9.200;2023-05-19T14:18:42;19.80;26.30
652;DHT22;310;48.490;9.200;2023-05-19T14:21:08;20.00;25.30
652;DHT22;310;48.490;9.200;2023-05-19T14:23:33;20.10;25.70
652;DHT22;310;48.490;9.200;2023-05-19T14:25:59;20.10;25.70
652;DHT22;310;48.490;9.200;2023-05-19T14:28:25;20.10;26.70
652;DHT22;310;48.490;9.200;2023-05-19T14:30:51;20.10;25.60
652;DHT22;310;48.490;9.200;2023-05-19T14:33:16;20.00;25.90
652;DHT22;310;48.490;9.200;2023-05-19T14:35:43;20.00;26.80
652;DHT22;310;48.490;9.200;2023-05-19T14:38:09;19.90;26.30
652;DHT22;310;48.490;9.200;2023-05-19T14:40:36;19.60;25.70
652;DHT22;310;48.490;9.200;2023-05-19T14:43:02;19.70;26.00
652;DHT22;310;48.490;9.200;2023-05-19T14:45:28;19.70;27.70
652;DHT22;310;48.490;9.200;2023-05-19T14:47:54;19.80;25.90
652;DHT22;310;48.490;9.200;2023-05-19T14:50:19;19.90;25.90
652;DHT22;310;48.490;9.200;2023-05-19T14:52:45;19.80;25.80
652;DHT22;310;48.490;9.200;2023-05-19T14:55:11;19.90;25.90
652;DHT22;310;48.490;9.200;2023-05-19T14:57:36;20.00;26.00
652;DHT22;310;48.490;9.200;2023-05-19T15:00:02;19.80;26.40
652;DHT22;310;48.490;9.200;2023-05-19T15:02:28;19.60;25.70
652;DHT22;310;48.490;9.200;2023-05-19T15:04:53;19.50;26.00
652;DHT22;310;48.490;9.200;2023-05-19T15:07:19;19.60;27.00
652;DHT22;310;48.490;9.200;2023-05-19T15:09:45;19.90;26.90
652;DHT22;310;48.490;9.200;2023-05-19T15:12:10;20.10;27.90
652;DHT22;310;48.490;9.200;2023-05-19T15:14:36;20.10;26.00
652;DHT22;310;48.490;9.200;2023-05-19T15:17:01;20.20;25.50
652;DHT22;310;48.490;9.200;2023-05-19T15:19:27;20.00;26.60
652;DHT22;310;48.490;9.200;2023-05-19T15:21:52;19.80;25.80
652;DHT22;310;48.490;9.200;2023-05-19T15:24:18;19.80;25.90
652;DHT22;310;48.490;9.200;2023-05-19T15:26:44;19.90;26.10
652;DHT22;310;48.490;9.200;2023-05-19T15:29:10;20.20;26.60
652;DHT22;310;48.490;9.200;2023-05-19T15:31:35;20.10;26.10
652;DHT22;310;48.490;9.200;2023-05-19T15:34:01;19.70;26.90
652;DHT22;310;48.490;9.200;2023-05-19T15:36:27;19.90;27.10
652;DHT22;310;48.490;9.200;2023-05-19T15:38:52;20.00;26.30
652;DHT22;310;48.490;9.200;2023-05-19T15:41:18;20.10;26.20
652;DHT22;310;48.490;9.200;2023-05-19T15:43:43;20.30;26.20
652;DHT22;310;48.490;9.200;2023-05-19T15:46:10;20.20;26.30
652;DHT22;310;48.490;9.200;2023-05-19T15:48:37;20.30;25.90
652;DHT22;310;48.490;9.200;2023-05-19T15:51:03;20.30;26.20
652;DHT22;310;48.490;9.200;2023-05-19T15:53:29;20.50;26.30
652;DHT22;310;48.490;9.200;2023-05-19T15:55:55;20.50;26.40
652;DHT22;310;48.490;9.200;2023-05-19T15:58:21;20.50;26.30
652;DHT22;310;48.490;9.200;2023-05-19T16:00:47;20.70;25.90
652;DHT22;310;48.490;9.200;2023-05-19T16:03:13;20.60;24.70
652;DHT22;310;48.490;9.200;2023-05-19T16:05:39;20.50;25.60
652;DHT22;310;48.490;9.200;2023-05-19T16:08:04;20.30;26.20
652;DHT22;310;48.490;9.200;2023-05-19T16:10:30;20.30;25.40
652;DHT22;310;48.490;9.200;2023-05-19T16:12:55;20.00;26.30
652;DHT22;310;48.490;9.200;2023-05-19T16:15:21;20.00;26.00
652;DHT22;310;48.490;9.200;2023-05-19T16:17:47;20.20;26.10
652;DHT22;310;48.490;9.200;2023-05-19T16:20:12;20.20;26.10
652;DHT22;310;48.490;9.200;2023-05-19T16:22:38;20.40;26.30
652;DHT22;310;48.490;9.200;2023-05-19T16:25:04;20.30;25.30
652;DHT22;310;48.490;9.200;2023-05-19T16:27:30;20.10;26.10
652;DHT22;310;48.490;9.200;2023-05-19T16:29:55;20.30;26.20
652;DHT22;310;48.490;9.200;2023-05-19T16:32:21;20.40;26.10
652;DHT22;310;48.490;9.200;2023-05-19T16:34:47;20.40;26.00
652;DHT22;310;48.490;9.200;2023-05-19T16:37:12;20.50;26.30
652;DHT22;310;48.490;9.200;2023-05-19T16:39:38;20.60;26.40
652;DHT22;310;48.490;9.200;2023-05-19T16:42:04;20.60;26.40
652;DHT22;310;48.490;9.200;2023-05-19T16:44:30;20.40;26.00
652;DHT22;310;48.490;9.200;2023-05-19T16:46:56;20.40;26.30
652;DHT22;310;48.490;9.200;2023-05-19T16:49:21;20.30;25.70
652;DHT22;310;48.490;9.200;2023-05-19T16:51:47;20.30;26.20
652;DHT22;310;48.490;9.200;2023-05-19T16:54:12;20.50;26.30
652;DHT22;310;48.490;9.200;2023-05-19T16:56:38;20.10;25.50
652;DHT22;310;48.490;9.200;2023-05-19T16:59:04;20.20;26.10
652;DHT22;310;48.490;9.200;2023-05-19T17:01:29;20.00;26.30
652;DHT22;310;48.490;9.200;2023-05-19T17:03:55;20.20;28.00